Time;durP1;ratioP1;P1;durP2;ratioP2;P2;SDS_P1;SDS_P2;PMS_P1;PMS_P2;Temp;Humidity;BMP_temperature;BMP_pressure;BME280_temperature;BME280_humidity;BME280_pressure;Samples;Min_cycle;Max_cycle;Signal;HPM_P1;HPM_P2
2022/08/20 00:01:34;;;;;;;5.28;2.03;;;;;;;16.43;56.30;100244.72;5083955;28;20052;-40
2022/08/20 00:04:01;;;;;;;2.53;1.65;;;;;;;16.43;56.03;100246.47;5086516;28;20063;-41
2022/08/20 00:06:28;;;;;;;4.75;1.90;;;;;;;16.40;56.56;100243.91;5081301;28;20040;-43
2022/08/20 00:08:54;;;;;;;7.72;2.30;;;;;;;16.37;56.56;100244.00;5068741;28;20049;-44
2022/08/20 00:11:24;;;;;;;4.55;1.75;;;;;;;16.34;56.87;100239.69;5066032;28;20073;-43
2022/08/20 00:13:55;;;;;;;3.03;1.85;;;;;;;16.31;56.68;100239.75;5063183;28;20036;-43
2022/08/20 00:16:25;;;;;;;6.13;1.75;;;;;;;16.27;56.35;100235.50;5066854;28;20044;-42
2022/08/20 00:18:52;;;;;;;2.33;1.67;;;;;;;16.24;56.47;100240.84;5069794;28;20549;-40
2022/08/20 00:21:19;;;;;;;2.70;1.77;;;;;;;16.23;56.80;100244.31;5083502;28;20055;-41
2022/08/20 00:23:49;;;;;;;4.93;2.03;;;;;;;16.18;56.67;100237.44;5083993;28;20105;-42
2022/08/20 00:26:17;;;;;;;4.65;1.88;;;;;;;16.13;57.43;100236.69;5084012;28;20056;-40
2022/08/20 00:28:44;;;;;;;3.42;2.75;;;;;;;16.10;56.88;100234.16;5077574;28;20044;-41
2022/08/20 00:31:14;;;;;;;4.38;2.05;;;;;;;16.07;57.29;100229.00;5087334;28;20051;-42
2022/08/20 00:33:41;;;;;;;3.40;1.73;;;;;;;16.01;57.37;100231.75;5086728;28;20544;-41
2022/08/20 00:36:10;;;;;;;2.80;2.28;;;;;;;15.97;57.55;100230.13;5087342;28;20040;-43
2022/08/20 00:38:39;;;;;;;3.33;1.58;;;;;;;15.92;57.89;100233.66;5073050;28;20052;-39
2022/08/20 00:41:11;;;;;;;3.67;2.33;;;;;;;15.90;58.09;100224.09;5071492;28;20060;-43
2022/08/20 00:43:42;;;;;;;5.35;2.05;;;;;;;15.86;57.77;100228.56;5072243;28;20044;-42
2022/08/20 00:48:48;;;;;;;4.55;0.80;;;;;;;15.80;58.15;100223.44;5095696;27;20389;-43
2022/08/20 00:56:57;;;;;;;3.75;1.08;;;;;;;15.70;58.32;100225.41;5064662;28;20411;-43
2022/08/20 00:59:27;;;;;;;1.70;0.73;;;;;;;15.68;58.82;100221.97;5023586;27;20481;-40
2022/08/20 01:01:54;;;;;;;1.77;0.85;;;;;;;15.64;58.69;100222.94;5014535;28;20133;-41
2022/08/20 01:04:25;;;;;;;4.32;1.10;;;;;;;15.61;58.98;100229.09;5014187;28;20054;-42
2022/08/20 01:06:52;;;;;;;5.15;1.35;;;;;;;15.58;58.89;100223.94;5011527;28;20041;-44
2022/08/20 01:09:20;;;;;;;3.63;0.63;;;;;;;15.56;59.33;100217.88;5013713;28;20049;-40
2022/08/20 01:12:08;;;;;;;3.83;0.82;;;;;;;15.50;59.28;100220.63;5019477;28;20101;-41
2022/08/20 01:17:18;;;;;;;3.15;0.85;;;;;;;15.47;59.19;100220.69;5034963;28;20395;-44
2022/08/20 01:19:50;;;;;;;3.08;1.13;;;;;;;15.44;59.01;100210.28;5028993;28;20054;-40
2022/08/20 01:25:24;;;;;;;2.15;1.15;;;;;;;15.35;59.32;100222.63;5032681;28;20041;-40
2022/08/20 01:27:52;;;;;;;4.13;0.95;;;;;;;15.34;59.41;100220.06;5016902;28;20097;-43
2022/08/20 01:30:24;;;;;;;4.82;0.93;;;;;;;15.32;59.50;100230.53;5017487;28;20050;-39
2022/08/20 01:32:51;;;;;;;9.68;0.70;;;;;;;15.29;59.71;100227.97;5024865;28;20049;-39
2022/08/20 01:35:21;;;;;;;3.70;0.98;;;;;;;15.28;59.47;100224.53;5019763;28;20068;-41
2022/08/20 01:37:47;;;;;;;;;;;;;;;15.02;60.08;100225.00;5016931;28;20048;-42
2022/08/20 01:40:22;;;;;;;4.65;0.73;;;;;;;15.18;59.95;100225.56;5013488;28;19964;-41
2022/08/20 01:42:49;;;;;;;6.05;0.82;;;;;;;15.15;59.85;100221.28;5015987;28;20077;-40
2022/08/20 01:45:27;;;;;;;2.53;1.70;;;;;;;15.15;59.90;100216.06;5015579;28;20417;-44
2022/08/20 01:47:56;;;;;;;5.43;1.30;;;;;;;15.12;60.28;100216.13;5015147;28;20061;-41
2022/08/20 01:50:26;;;;;;;4.10;1.75;;;;;;;15.11;60.33;100219.63;5018126;28;20445;-45
2022/08/20 01:52:56;;;;;;;;;;;;;;;14.89;60.64;100217.41;5021268;28;20053;-40
2022/08/20 01:55:25;;;;;;;1.58;0.90;;;;;;;15.03;60.41;100221.53;5017445;28;20200;-40
2022/08/20 01:57:52;;;;;;;3.33;0.75;;;;;;;15.02;60.42;100211.94;5031915;28;20100;-41
2022/08/20 02:00:20;;;;;;;5.60;0.80;;;;;;;15.02;60.19;100217.16;5016945;28;20050;-43
2022/08/20 02:02:48;;;;;;;3.05;0.80;;;;;;;15.01;60.52;100218.06;5033258;28;20054;-41
2022/08/20 02:05:16;;;;;;;4.85;0.82;;;;;;;15.00;60.51;100211.13;5019473;28;20054;-41
2022/08/20 02:07:42;;;;;;;6.03;0.80;;;;;;;14.98;60.80;100212.91;5018489;28;20054;-41
2022/08/20 02:10:12;;;;;;;3.33;1.08;;;;;;;14.97;60.81;100216.41;5021791;28;20050;-44
2022/08/20 02:12:39;;;;;;;3.25;0.85;;;;;;;14.94;60.93;100221.66;5016929;28;20050;-42
2022/08/20 02:15:09;;;;;;;4.72;1.17;;;;;;;14.93;60.95;100214.75;5018635;28;20240;-43
2022/08/20 02:17:38;;;;;;;8.77;1.27;;;;;;;14.89;61.22;100225.22;5016708;28;20104;-45
2022/08/20 02:22:50;;;;;;;5.47;1.83;;;;;;;14.84;61.11;100213.16;5047910;27;20906;-39
2022/08/20 02:25:20;;;;;;;5.90;1.77;;;;;;;14.81;61.34;100206.25;5031190;28;20048;-40
2022/08/20 02:27:50;;;;;;;3.63;1.95;;;;;;;14.81;61.73;100201.03;5040151;28;20057;-40
2022/08/20 02:30:22;;;;;;;3.05;1.42;;;;;;;14.80;60.96;100209.75;5023828;28;20059;-47
2022/08/20 02:32:53;;;;;;;;;;;;;;;14.58;62.39;100199.66;5041802;28;20145;-40
2022/08/20 02:35:23;;;;;;;6.32;1.65;;;;;;;14.73;62.27;100203.72;5042577;28;20012;-39
2022/08/20 02:37:51;;;;;;;6.78;1.83;;;;;;;14.75;61.25;100201.09;5039581;28;20050;-42
2022/08/20 02:40:20;;;;;;;4.00;2.05;;;;;;;14.75;61.85;100201.09;5040866;28;20084;-43
2022/08/20 02:42:56;;;;;;;4.55;1.70;;;;;;;14.74;61.44;100204.59;5040832;28;20428;-39
2022/08/20 02:45:23;;;;;;;5.65;1.85;;;;;;;14.73;61.58;100208.09;5044110;28;20057;-40
2022/08/20 02:47:52;;;;;;;2.08;1.60;;;;;;;14.70;61.59;100201.19;5038957;28;20045;-43
2022/08/20 02:50:22;;;;;;;5.07;2.40;;;;;;;14.69;62.02;100198.63;5042029;28;20128;-41
2022/08/20 02:52:49;;;;;;;3.67;1.98;;;;;;;14.65;62.22;100196.06;5039618;28;20049;-46
2022/08/20 02:55:18;;;;;;;8.85;2.30;;;;;;;14.63;61.82;100192.59;5041130;28;20132;-43
2022/08/20 02:57:55;;;;;;;5.00;2.35;;;;;;;14.63;62.09;100192.59;5041053;28;20049;-41
2022/08/20 03:00:26;;;;;;;3.90;1.90;;;;;;;14.61;62.74;100198.75;5038614;28;20103;-39
2022/08/20 03:02:52;;;;;;;6.93;2.20;;;;;;;14.59;62.52;100196.16;5041109;28;20131;-40
2022/08/20 03:05:19;;;;;;;5.03;1.75;;;;;;;14.57;62.93;100187.53;5040836;28;20052;-46
2022/08/20 03:07:50;;;;;;;4.25;1.58;;;;;;;14.56;62.28;100190.97;5039760;28;20053;-38
2022/08/20 03:10:16;;;;;;;6.03;1.63;;;;;;;14.55;63.05;100189.28;5030045;28;20050;-38
2022/08/20 03:12:43;;;;;;;5.72;2.00;;;;;;;14.54;63.35;100182.34;5017042;28;20046;-41
2022/08/20 03:15:10;;;;;;;5.38;2.17;;;;;;;14.51;63.27;100183.28;5042547;28;20481;-42
2022/08/20 03:17:43;;;;;;;6.05;2.33;;;;;;;14.51;62.51;100179.78;5025945;28;20065;-42
2022/08/20 03:20:12;;;;;;;4.22;1.90;;;;;;;14.48;62.93;100185.91;5040285;28;20051;-41
2022/08/20 03:22:39;;;;;;;6.32;1.80;;;;;;;14.46;63.43;100179.84;5034288;28;20049;-42
2022/08/20 03:25:06;;;;;;;6.10;2.00;;;;;;;14.46;63.47;100184.22;5032333;28;20050;-43
2022/08/20 03:27:33;;;;;;;10.65;2.10;;;;;;;14.44;63.53;100176.44;5035530;28;20046;-40
2022/08/20 03:30:05;;;;;;;3.95;1.92;;;;;;;14.43;63.04;100174.72;5040322;28;20107;-43
2022/08/20 03:32:31;;;;;;;6.72;2.22;;;;;;;14.39;63.38;100176.50;5034542;28;20061;-46
2022/08/20 03:34:58;;;;;;;4.38;1.77;;;;;;;14.39;63.21;100178.28;5024375;28;20111;-45
2022/08/20 03:37:28;;;;;;;4.68;0.90;;;;;;;14.37;63.01;100180.03;5024306;28;20632;-42
2022/08/20 03:39:55;;;;;;;5.43;2.13;;;;;;;14.34;63.70;100183.53;5027330;28;20045;-39
2022/08/20 03:42:22;;;;;;;7.30;2.55;;;;;;;14.31;63.88;100173.16;5019744;28;20456;-41
2022/08/20 03:44:48;;;;;;;5.72;2.20;;;;;;;14.29;63.77;100172.34;5028127;28;20080;-39
2022/08/20 03:47:25;;;;;;;3.95;2.05;;;;;;;14.25;63.76;100165.44;5024488;28;20050;-40
2022/08/20 03:49:57;;;;;;;6.10;1.95;;;;;;;14.22;63.76;100160.31;5027716;28;20108;-42
2022/08/20 03:52:24;;;;;;;4.75;2.63;;;;;;;14.21;63.46;100166.38;5025773;28;20108;-39
2022/08/20 03:54:50;;;;;;;7.35;2.88;;;;;;;14.19;64.04;100168.16;5022783;28;20045;-38
2022/08/20 03:57:17;;;;;;;6.10;1.83;;;;;;;14.17;63.97;100167.31;5028956;28;20053;-43
2022/08/20 03:59:44;;;;;;;5.47;2.08;;;;;;;14.14;63.96;100156.06;5021362;28;20049;-40
2022/08/20 04:02:15;;;;;;;3.38;1.52;;;;;;;14.12;63.85;100165.63;5023778;28;20041;-42
2022/08/20 04:04:42;;;;;;;4.05;1.60;;;;;;;14.11;64.50;100163.94;5023566;28;20084;-40
2022/08/20 04:07:11;;;;;;;8.23;1.75;;;;;;;14.10;64.22;100162.22;5024232;28;20057;-43
2022/08/20 04:09:38;;;;;;;;;;;;;;;13.88;65.48;100157.31;5026898;28;20365;-39
2022/08/20 04:12:06;;;;;;;5.72;1.27;;;;;;;14.02;64.56;100164.09;5026120;28;20285;-42
2022/08/20 04:14:35;;;;;;;4.72;1.50;;;;;;;14.03;64.10;100164.91;5027442;28;20049;-43
2022/08/20 04:17:06;;;;;;;4.30;1.60;;;;;;;14.02;64.69;100161.47;5027953;28;20053;-45
2022/08/20 04:19:34;;;;;;;5.00;1.08;;;;;;;14.01;64.43;100167.53;5023416;28;20355;-46
2022/08/20 04:22:01;;;;;;;4.22;1.50;;;;;;;13.99;64.38;100174.53;5025047;28;20045;-41
2022/08/20 04:24:27;;;;;;;7.78;1.10;;;;;;;13.98;64.98;100175.41;5019590;28;20558;-40
2022/08/20 04:26:59;;;;;;;3.55;1.48;;;;;;;13.96;65.19;100171.97;5027041;28;20049;-41
2022/08/20 04:29:26;;;;;;;2.90;1.50;;;;;;;13.95;65.40;100184.13;5025808;28;20060;-43
2022/08/20 04:31:59;;;;;;;7.70;1.60;;;;;;;13.94;64.86;100173.72;5024083;28;21761;-39
2022/08/20 04:34:29;;;;;;;4.75;0.70;;;;;;;13.94;65.43;100171.13;5025479;28;20424;-43
2022/08/20 04:36:55;;;;;;;5.80;2.13;;;;;;;13.94;64.94;100184.13;5024295;28;20056;-46
2022/08/20 04:39:22;;;;;;;7.93;0.95;;;;;;;13.94;65.22;100186.75;5021466;28;20381;-43
2022/08/20 04:41:49;;;;;;;5.20;2.08;;;;;;;13.93;65.99;100185.03;5026378;28;20060;-40
2022/08/20 04:44:16;;;;;;;9.02;0.82;;;;;;;13.93;66.11;100185.03;5023557;28;20375;-41
2022/08/20 04:46:42;;;;;;;5.20;2.05;;;;;;;13.92;66.02;100194.59;5024218;28;20500;-41
2022/08/20 04:49:09;;;;;;;3.78;1.92;;;;;;;13.93;66.19;100190.25;5024043;28;20123;-42
2022/08/20 04:51:35;;;;;;;9.45;1.80;;;;;;;13.92;65.23;100188.53;5024883;28;20072;-42
2022/08/20 04:54:03;;;;;;;6.65;2.53;;;;;;;13.91;66.33;100192.03;5023731;28;20123;-39
2022/08/20 04:56:36;;;;;;;8.63;3.22;;;;;;;13.92;65.39;100193.72;5024144;28;20472;-42
2022/08/20 04:59:04;;;;;;;7.40;1.55;;;;;;;13.91;65.42;100203.28;5020543;28;20045;-38
2022/08/20 05:01:31;;;;;;;5.65;1.48;;;;;;;13.90;65.49;100201.56;5023336;28;20042;-42
2022/08/20 05:03:58;;;;;;;8.07;2.05;;;;;;;13.90;65.87;100195.47;5020725;28;20057;-41
2022/08/20 05:06:29;;;;;;;5.40;2.35;;;;;;;13.91;66.54;100197.22;5024585;28;20045;-43
2022/08/20 05:08:57;;;;;;;5.32;1.83;;;;;;;13.90;65.83;100195.47;5022238;28;20052;-41
2022/08/20 05:11:24;;;;;;;6.38;2.08;;;;;;;13.91;65.64;100197.22;5021716;28;20045;-38
2022/08/20 05:14:04;;;;;;;7.30;1.50;;;;;;;13.92;65.55;100198.94;5024648;28;20053;-45
2022/08/20 05:16:36;;;;;;;6.35;2.25;;;;;;;13.93;65.73;100192.84;5020956;28;20037;-43
2022/08/20 05:19:03;;;;;;;5.72;1.92;;;;;;;13.94;65.47;100191.94;5020718;28;20069;-42
2022/08/20 05:21:29;;;;;;;7.20;1.48;;;;;;;13.96;65.45;100198.00;5021039;28;20584;-41
2022/08/20 05:23:56;;;;;;;6.88;2.20;;;;;;;13.95;65.21;100193.69;5023867;28;20053;-42
2022/08/20 05:26:25;;;;;;;6.53;2.55;;;;;;;13.95;66.33;100188.50;5022485;28;20469;-41
2022/08/20 05:28:51;;;;;;;5.97;1.80;;;;;;;13.96;66.39;100195.41;5021066;28;20045;-40
2022/08/20 05:31:24;;;;;;;3.30;1.95;;;;;;;13.98;66.46;100183.22;5026614;28;20053;-44
2022/08/20 05:34:00;;;;;;;8.40;2.22;;;;;;;14.02;65.67;100190.13;5016027;28;20050;-41
2022/08/20 05:36:27;;;;;;;10.85;2.17;;;;;;;14.04;67.07;100198.75;5021993;28;20052;-40
2022/08/20 05:38:54;;;;;;;5.90;1.90;;;;;;;14.04;66.35;100183.13;5024736;28;20049;-43
2022/08/20 05:41:21;;;;;;;4.90;1.90;;;;;;;14.07;66.23;100190.91;5026784;28;20049;-43
2022/08/20 05:43:56;;;;;;;7.85;2.08;;;;;;;14.12;66.33;100196.06;5015034;28;20060;-41
2022/08/20 05:46:22;;;;;;;7.72;2.22;;;;;;;14.13;66.72;100198.63;5022708;28;20053;-38
2022/08/20 05:48:49;;;;;;;6.00;1.95;;;;;;;14.16;67.13;100195.13;5023115;28;20485;-40
2022/08/20 05:51:16;;;;;;;5.47;2.15;;;;;;;14.20;67.27;100198.53;5024948;28;20053;-44
2022/08/20 05:53:42;;;;;;;5.93;1.42;;;;;;;14.22;66.43;100196.78;5024882;28;20045;-43
2022/08/20 05:56:10;;;;;;;8.15;1.70;;;;;;;14.25;66.46;100201.91;5021806;28;20061;-43
2022/08/20 05:58:37;;;;;;;10.55;2.17;;;;;;;14.29;67.42;100192.31;5022952;28;20052;-43
2022/08/20 06:01:04;;;;;;;8.23;2.50;;;;;;;14.31;67.99;100191.41;5024121;28;20053;-38
2022/08/20 06:06:17;;;;;;;5.55;2.08;;;;;;;14.42;66.95;100200.81;5016385;28;20167;-39
2022/08/20 06:09:04;;;;;;;5.93;2.17;;;;;;;14.46;67.45;100211.13;5023069;28;20128;-40
2022/08/20 06:11:31;;;;;;;5.20;2.45;;;;;;;14.52;67.11;100215.38;5023055;28;20103;-42
2022/08/20 06:14:02;;;;;;;5.30;1.73;;;;;;;14.56;67.07;100206.63;5026617;28;20042;-44
2022/08/20 06:16:29;;;;;;;4.13;2.17;;;;;;;14.59;67.11;100217.00;5023455;28;20057;-40
2022/08/20 06:18:57;;;;;;;4.72;1.63;;;;;;;14.65;67.37;100210.81;5022991;28;20053;-40
2022/08/20 06:21:24;;;;;;;4.70;1.85;;;;;;;14.70;67.02;100210.75;5007771;28;20053;-42
2022/08/20 06:23:51;;;;;;;5.90;1.85;;;;;;;14.76;67.12;100214.09;5025101;28;20037;-42
2022/08/20 06:26:27;;;;;;;5.47;1.70;;;;;;;14.83;67.25;100212.28;5025465;28;20076;-40
2022/08/20 06:28:57;;;;;;;3.67;1.92;;;;;;;14.91;67.69;100209.56;5024596;28;20099;-41
2022/08/20 06:31:26;;;;;;;7.30;2.22;;;;;;;14.97;67.39;100213.78;5025893;28;20128;-40
2022/08/20 06:33:53;;;;;;;6.20;1.90;;;;;;;15.03;67.53;100206.72;5015038;28;20057;-42
2022/08/20 06:36:20;;;;;;;5.60;1.70;;;;;;;15.10;67.57;100217.88;5017374;28;20054;-41
2022/08/20 06:38:46;;;;;;;8.60;1.75;;;;;;;15.16;67.25;100217.78;5022106;28;20095;-43
2022/08/20 06:41:13;;;;;;;9.75;2.10;;;;;;;15.24;67.37;100217.66;5024215;28;20046;-43
2022/08/20 06:43:40;;;;;;;6.70;1.70;;;;;;;15.34;67.34;100212.22;5020678;28;20100;-37
2022/08/20 06:46:07;;;;;;;5.30;1.05;;;;;;;15.64;67.12;100208.13;5019362;28;20566;-41
2022/08/20 06:48:34;;;;;;;10.65;2.20;;;;;;;16.24;66.68;100214.69;5026027;28;20049;-41
2022/08/20 06:51:01;;;;;;;7.82;1.85;;;;;;;16.88;67.13;100213.97;5019994;28;20056;-44
2022/08/20 06:53:28;;;;;;;10.45;2.03;;;;;;;17.52;65.86;100214.00;5022068;28;20049;-39
2022/08/20 06:55:57;;;;;;;6.07;2.00;;;;;;;18.16;65.59;100218.22;5025397;28;20048;-43
2022/08/20 06:58:25;;;;;;;7.85;1.90;;;;;;;18.42;64.06;100226.16;5018757;28;20056;-39
2022/08/20 07:01:03;;;;;;;6.25;0.93;;;;;;;18.27;63.01;100222.28;5024076;28;20420;-40
2022/08/20 07:03:37;;;;;;;4.95;2.00;;;;;;;18.06;63.48;100228.13;5023853;28;20148;-41
2022/08/20 07:06:05;;;;;;;8.85;1.65;;;;;;;18.20;64.19;100222.47;5021517;28;20424;-42
2022/08/20 07:08:32;;;;;;;5.10;0.95;;;;;;;18.73;64.27;100223.38;5019786;28;20472;-40
2022/08/20 07:10:58;;;;;;;7.57;2.08;;;;;;;19.37;63.14;100221.19;5028805;28;20046;-42
2022/08/20 07:13:27;;;;;;;5.88;2.45;;;;;;;19.86;62.00;100227.28;5022005;28;20118;-41
2022/08/20 07:15:54;;;;;;;8.18;1.98;;;;;;;20.37;61.25;100225.25;5024960;28;20083;-44
2022/08/20 07:18:22;;;;;;;6.22;1.65;;;;;;;20.73;59.99;100223.78;5023674;28;20111;-42
2022/08/20 07:20:55;;;;;;;4.28;2.17;;;;;;;20.83;59.30;100223.41;5017863;28;20552;-44
2022/08/20 07:23:25;;;;;;;5.70;2.03;;;;;;;20.93;58.94;100233.50;5026921;28;20049;-47
2022/08/20 07:25:52;;;;;;;6.25;2.25;;;;;;;21.29;59.08;100229.31;5023392;28;20041;-41
2022/08/20 07:28:24;;;;;;;4.63;1.00;;;;;;;21.74;57.93;100222.94;5026614;28;20390;-47
2022/08/20 07:33:43;;;;;;;6.38;1.48;;;;;;;22.76;56.46;100225.06;5024368;28;20045;-46
2022/08/20 07:36:11;;;;;;;7.50;1.90;;;;;;;23.16;55.58;100226.56;5026088;28;20068;-38
2022/08/20 07:38:38;;;;;;;6.78;2.00;;;;;;;23.51;54.77;100226.53;5023192;28;20065;-43
2022/08/20 07:41:09;;;;;;;4.30;1.58;;;;;;;23.87;53.58;100233.34;5025901;28;20057;-40
2022/08/20 07:43:35;;;;;;;5.03;2.30;;;;;;;24.28;52.77;100231.09;5022063;28;20124;-42
2022/08/20 07:46:07;;;;;;;7.53;2.88;;;;;;;24.59;52.01;100239.06;5024544;28;20551;-41
2022/08/20 07:48:38;;;;;;;3.67;1.92;;;;;;;24.84;51.54;100234.94;5024706;28;20072;-44
2022/08/20 07:51:07;;;;;;;5.63;1.90;;;;;;;25.21;50.90;100237.19;5020289;28;20065;-43
2022/08/20 07:53:36;;;;;;;5.50;1.83;;;;;;;25.63;50.33;100227.53;5027365;28;20042;-49
2022/08/20 07:56:04;;;;;;;3.97;1.80;;;;;;;26.02;49.42;100230.38;5030313;28;20124;-42
2022/08/20 07:58:34;;;;;;;6.18;2.20;;;;;;;26.28;48.94;100224.34;5011023;28;20053;-45
2022/08/20 08:01:01;;;;;;;3.17;2.03;;;;;;;26.53;47.70;100228.00;4998532;28;20508;-43
2022/08/20 08:03:28;;;;;;;4.05;1.38;;;;;;;26.68;47.64;100211.00;5026435;28;20088;-42
2022/08/20 08:06:15;;;;;;;5.85;2.45;;;;;;;27.00;46.81;100219.56;5028391;28;20459;-44
2022/08/20 08:09:04;;;;;;;4.38;2.40;;;;;;;27.31;46.54;100215.59;5028523;28;20045;-40
2022/08/20 08:11:32;;;;;;;;;;;;;;;27.75;47.06;100214.31;5028139;28;20045;-45
2022/08/20 08:13:59;;;;;;;3.38;1.90;;;;;;;27.84;45.62;100214.53;5016398;28;20569;-46
2022/08/20 08:16:27;;;;;;;5.72;2.83;;;;;;;28.05;45.00;100210.38;5027350;28;20049;-41
2022/08/20 08:18:55;;;;;;;3.92;2.38;;;;;;;28.21;44.92;100216.28;5026418;28;20059;-43
2022/08/20 08:21:22;;;;;;;5.05;1.90;;;;;;;28.38;44.42;100211.53;5026425;28;20052;-44
2022/08/20 08:23:49;;;;;;;6.30;2.80;;;;;;;28.60;43.93;100215.19;5030045;28;20033;-43
2022/08/20 08:26:16;;;;;;;5.00;1.88;;;;;;;28.82;43.32;100213.53;5026965;28;20044;-44
2022/08/20 08:28:45;;;;;;;3.70;2.08;;;;;;;29.01;43.22;100217.47;5025457;28;20045;-50
2022/08/20 08:31:13;;;;;;;3.88;1.85;;;;;;;29.17;42.55;100233.94;5026953;28;20534;-45
2022/08/20 08:33:41;;;;;;;3.72;1.83;;;;;;;29.38;41.96;100231.41;5025393;28;20050;-45
2022/08/20 08:36:12;;;;;;;5.97;2.00;;;;;;;29.43;41.47;100231.03;5025119;28;20088;-46
2022/08/20 08:38:42;;;;;;;4.97;1.70;;;;;;;29.40;41.46;100233.94;5024741;28;20114;-43
2022/08/20 08:44:11;;;;;;;6.25;1.00;;;;;;;29.73;41.08;100234.91;5034129;27;20905;-42
2022/08/20 08:46:42;;;;;;;5.43;0.93;;;;;;;29.72;40.02;100227.03;5020794;28;20054;-50
2022/08/20 08:49:15;;;;;;;6.35;1.05;;;;;;;29.32;40.88;100239.06;5022839;28;20048;-42
2022/08/20 08:51:49;;;;;;;3.40;0.85;;;;;;;28.77;41.17;100231.72;5025178;28;20056;-45
2022/08/20 08:54:20;;;;;;;2.95;0.70;;;;;;;28.31;41.40;100231.59;5023294;28;20038;-43
2022/08/20 08:56:47;;;;;;;5.32;1.08;;;;;;;27.95;41.94;100227.03;5021558;28;20373;-45
2022/08/20 08:59:17;;;;;;;6.15;1.15;;;;;;;27.68;43.20;100236.06;5024964;28;20049;-48
2022/08/20 09:01:49;;;;;;;3.63;0.80;;;;;;;27.50;43.39;100227.59;5022787;28;20065;-47
2022/08/20 09:04:29;;;;;;;7.65;1.25;;;;;;;27.30;42.84;100223.69;5023867;28;20046;-47
2022/08/20 09:06:57;;;;;;;3.72;1.40;;;;;;;27.45;43.83;100225.25;5021108;28;20089;-43
2022/08/20 09:09:29;;;;;;;4.20;2.30;;;;;;;27.53;43.06;100218.53;5020657;28;20437;-44
2022/08/20 09:12:05;;;;;;;3.42;0.90;;;;;;;27.51;42.19;100209.81;5024730;28;20054;-45
2022/08/20 09:14:33;;;;;;;4.78;0.80;;;;;;;27.36;42.94;100209.97;5022812;28;20053;-46
2022/08/20 09:16:59;;;;;;;5.07;0.90;;;;;;;27.52;42.74;100208.88;5021911;28;20046;-43
2022/08/20 09:19:26;;;;;;;6.40;1.27;;;;;;;27.63;42.53;100205.44;5007629;28;20057;-43
2022/08/20 09:21:52;;;;;;;5.47;1.42;;;;;;;27.78;42.91;100200.81;5000631;28;20126;-46
2022/08/20 09:24:19;;;;;;;2.97;1.23;;;;;;;28.04;42.48;100198.91;5005335;28;20490;-47
2022/08/20 09:26:46;;;;;;;8.15;1.67;;;;;;;28.46;42.64;100202.94;5004433;28;20434;-44
2022/08/20 09:29:13;;;;;;;4.82;1.30;;;;;;;28.94;41.66;100195.78;5005151;28;20046;-47
2022/08/20 09:31:40;;;;;;;2.30;0.80;;;;;;;29.19;40.96;100202.69;5005687;28;20050;-49
2022/08/20 09:34:07;;;;;;;4.47;0.70;;;;;;;29.33;41.10;100204.25;5004780;28;20046;-45
2022/08/20 09:36:34;;;;;;;3.55;1.05;;;;;;;29.48;40.71;100199.50;5003895;28;20069;-41
2022/08/20 09:39:01;;;;;;;4.00;1.08;;;;;;;29.67;39.77;100197.19;5004465;28;20050;-44
2022/08/20 09:41:30;;;;;;;4.85;1.00;;;;;;;29.61;39.62;100198.53;5002501;28;20077;-41
2022/08/20 09:44:00;;;;;;;4.05;0.77;;;;;;;29.59;39.06;100195.16;5002511;28;20054;-49
2022/08/20 09:46:27;;;;;;;5.32;1.33;;;;;;;29.35;39.10;100193.47;5003225;28;20053;-43
2022/08/20 09:48:54;;;;;;;5.30;1.73;;;;;;;29.05;39.51;100185.13;5004373;28;20053;-46
2022/08/20 09:51:21;;;;;;;3.63;1.30;;;;;;;28.88;39.51;100181.09;5005140;28;20053;-46
2022/08/20 09:53:48;;;;;;;6.72;1.05;;;;;;;29.00;40.53;100189.97;5001538;28;20046;-45
2022/08/20 09:56:15;;;;;;;6.45;1.00;;;;;;;29.14;39.09;100174.69;4990382;28;20042;-50
2022/08/20 09:58:53;;;;;;;3.22;1.38;;;;;;;28.86;38.92;100172.34;4991791;28;20050;-42
2022/08/20 10:01:21;;;;;;;5.00;1.33;;;;;;;28.64;39.73;100179.38;4992724;28;20053;-47
2022/08/20 10:03:49;;;;;;;3.70;1.30;;;;;;;28.40;39.50;100169.63;4991637;28;20069;-41
2022/08/20 10:06:18;;;;;;;10.07;1.00;;;;;;;28.27;40.54;100171.50;4989186;28;20050;-46
2022/08/20 10:08:46;;;;;;;4.30;1.90;;;;;;;28.12;40.29;100168.16;4991285;28;20061;-45
2022/08/20 10:11:13;;;;;;;4.05;1.00;;;;;;;27.96;40.58;100169.31;4991406;28;20054;-46
2022/08/20 10:13:39;;;;;;;5.57;1.30;;;;;;;27.92;40.98;100173.19;4991461;28;20105;-46
2022/08/20 10:16:06;;;;;;;1.63;0.73;;;;;;;27.94;40.38;100172.13;4991953;28;20047;-46
2022/08/20 10:18:34;;;;;;;4.53;1.42;;;;;;;28.07;40.28;100166.69;4990124;28;20084;-44
2022/08/20 10:21:01;;;;;;;3.70;0.90;;;;;;;28.13;40.09;100165.41;4990964;28;20054;-39
2022/08/20 10:23:27;;;;;;;3.45;0.90;;;;;;;28.16;39.93;100164.34;4990999;28;20054;-41
2022/08/20 10:25:54;;;;;;;4.35;1.20;;;;;;;28.26;39.82;100175.13;4991083;28;20104;-43
2022/08/20 10:28:21;;;;;;;4.05;1.35;;;;;;;28.31;40.58;100167.66;4991638;28;20043;-46
2022/08/20 10:30:47;;;;;;;3.47;1.15;;;;;;;28.37;39.83;100167.22;4991034;28;20046;-44
2022/08/20 10:33:14;;;;;;;3.65;1.10;;;;;;;28.42;39.91;100165.03;4990698;28;20042;-46
2022/08/20 10:35:40;;;;;;;2.38;0.60;;;;;;;28.50;39.62;100171.59;4988815;28;20174;-46
2022/08/20 10:38:07;;;;;;;5.05;1.08;;;;;;;28.53;39.72;100164.19;4990933;28;20055;-41
2022/08/20 10:40:34;;;;;;;3.47;1.23;;;;;;;28.67;40.47;100157.81;4990861;28;20038;-47
2022/08/20 10:43:00;;;;;;;2.85;0.90;;;;;;;28.90;39.60;100157.81;4990269;28;20054;-46
2022/08/20 10:45:27;;;;;;;4.82;1.10;;;;;;;29.08;39.51;100154.72;4990640;28;20047;-42
2022/08/20 10:47:54;;;;;;;3.35;0.73;;;;;;;29.11;38.81;100160.63;4991555;28;20050;-42
2022/08/20 10:50:20;;;;;;;5.93;1.13;;;;;;;29.14;38.41;100159.53;4990785;28;20045;-48
2022/08/20 10:52:47;;;;;;;6.55;1.02;;;;;;;29.18;39.61;100158.31;4990578;28;20038;-43
2022/08/20 10:55:14;;;;;;;4.45;0.90;;;;;;;29.30;38.73;100147.63;4990729;28;20049;-39
2022/08/20 10:57:41;;;;;;;4.65;1.35;;;;;;;29.38;38.26;100148.72;4989627;28;20042;-43
2022/08/20 11:00:11;;;;;;;4.13;0.80;;;;;;;29.38;38.59;100150.56;4989954;28;20137;-45
2022/08/20 11:02:38;;;;;;;4.30;0.73;;;;;;;29.38;37.98;100155.88;4988283;28;20053;-45
2022/08/20 11:05:06;;;;;;;3.88;0.70;;;;;;;29.44;38.50;100147.38;4985119;28;20128;-44
2022/08/20 11:07:36;;;;;;;3.65;0.77;;;;;;;29.59;38.65;100147.94;4988065;28;20050;-50
2022/08/20 11:10:22;;;;;;;;;;;;;;;29.72;38.10;100147.78;4989525;28;20096;-40
2022/08/20 11:12:48;;;;;;;1.98;1.05;;;;;;;29.87;38.11;100139.50;4989895;28;20262;-48
2022/08/20 11:15:15;;;;;;;3.40;1.30;;;;;;;30.10;38.41;100142.06;4989115;28;20104;-45
2022/08/20 11:17:43;;;;;;;4.43;0.70;;;;;;;30.34;38.40;100138.31;4987519;28;20069;-44
2022/08/20 11:20:13;;;;;;;2.85;0.85;;;;;;;30.47;37.49;100141.63;4989329;28;20481;-45
2022/08/20 11:22:39;;;;;;;5.55;0.70;;;;;;;30.37;36.65;100135.38;4988335;28;20490;-46
2022/08/20 11:25:07;;;;;;;3.30;0.70;;;;;;;30.30;36.95;100139.56;4989569;28;20058;-47
2022/08/20 11:27:40;;;;;;;3.00;0.80;;;;;;;30.20;36.87;100151.03;4972787;28;20046;-41
2022/08/20 11:30:11;;;;;;;5.05;1.00;;;;;;;29.97;37.08;100140.44;4987886;28;20475;-44
2022/08/20 11:32:38;;;;;;;3.47;0.82;;;;;;;29.92;37.22;100147.13;4988718;28;20069;-42
2022/08/20 11:35:05;;;;;;;3.63;1.05;;;;;;;30.08;37.77;100152.88;4986588;28;20062;-45
2022/08/20 11:37:54;;;;;;;2.95;0.77;;;;;;;30.25;37.75;100148.81;4987969;28;20042;-46
2022/08/20 11:40:22;;;;;;;3.45;0.80;;;;;;;30.30;36.76;100142.22;4988441;28;20132;-44
2022/08/20 11:42:50;;;;;;;4.90;2.00;;;;;;;30.38;37.46;100153.09;4989102;28;20442;-45
2022/08/20 11:45:36;;;;;;;2.15;0.70;;;;;;;30.32;36.54;100158.97;4989884;28;20124;-47
2022/08/20 11:48:04;;;;;;;1.30;0.85;;;;;;;30.19;35.87;100159.16;4990389;28;20073;-42
2022/08/20 11:50:30;;;;;;;2.80;0.45;;;;;;;29.95;36.08;100153.03;4988702;28;20052;-43
2022/08/20 11:52:57;;;;;;;2.08;1.05;;;;;;;29.73;35.81;100160.19;4988445;28;20039;-42
2022/08/20 11:55:26;;;;;;;2.83;1.00;;;;;;;29.41;35.88;100160.94;4989438;28;20052;-52
2022/08/20 11:57:56;;;;;;;3.05;0.80;;;;;;;29.18;36.27;100163.66;4989514;28;20125;-49
2022/08/20 12:00:25;;;;;;;;;;;;;;;28.78;37.50;100164.13;4990381;28;20046;-44